Time;durP1;ratioP1;P1;durP2;ratioP2;P2;SDS_P1;SDS_P2;PMS_P1;PMS_P2;Temp;Humidity;BMP_temperature;BMP_pressure;BME280_temperature;BME280_humidity;BME280_pressure;Samples;Min_cycle;Max_cycle;Signal;HPM_P1;HPM_P2
2024/02/04 00:01:25;;;;;;;;;18.67;18.00;;;;;;;;5080470;27;45285;-80
2024/02/04 00:03:50;;;;;;;;;18.00;16.67;;;;;;;;5080442;28;45305;-80
2024/02/04 00:06:16;;;;;;;;;15.00;13.67;;;;;;;;5078823;28;46526;-80
2024/02/04 00:08:41;;;;;;;;;16.33;16.33;;;;;;;;5080255;27;45241;-80
2024/02/04 00:11:08;;;;;;;;;29.00;25.00;;;;;;;;5079935;27;45207;-80
2024/02/04 00:13:33;;;;;;;;;20.33;19.00;;;;;;;;5079009;28;45404;-80
2024/02/04 00:15:58;;;;;;;;;18.33;18.33;;;;;;;;5080150;27;45369;-80
2024/02/04 00:18:24;;;;;;;;;19.67;17.33;;;;;;;;5080100;28;45434;-80
2024/02/04 00:20:49;;;;;;;;;15.00;15.00;;;;;;;;5080113;27;45328;-80
2024/02/04 00:23:14;;;;;;;;;18.00;18.00;;;;;;;;5080253;27;45278;-80
2024/02/04 00:25:41;;;;;;;;;21.00;20.67;;;;;;;;5078425;28;46729;-80
2024/02/04 00:28:06;;;;;;;;;11.67;11.67;;;;;;;;5079311;28;46585;-80
2024/02/04 00:30:31;;;;;;;;;13.00;11.67;;;;;;;;5078085;28;45377;-80
2024/02/04 00:33:02;;;;;;;;;17.00;17.00;;;;;;;;5080173;27;45538;-79
2024/02/04 00:35:27;;;;;;;;;11.33;11.33;;;;;;;;5078343;28;46084;-80
2024/02/04 00:37:53;;;;;;;;;9.67;9.67;;;;;;;;5079653;27;46279;-81
2024/02/04 00:40:18;;;;;;;;;9.67;9.67;;;;;;;;5079714;27;45231;-80
2024/02/04 00:42:43;;;;;;;;;5.00;5.00;;;;;;;;5080081;27;45285;-80
2024/02/04 00:45:08;;;;;;;;;9.00;9.00;;;;;;;;5078555;28;47216;-80
2024/02/04 00:47:33;;;;;;;;;9.67;9.67;;;;;;;;5079740;27;47830;-80
2024/02/04 00:49:59;;;;;;;;;9.00;9.00;;;;;;;;5079745;27;45448;-80
2024/02/04 00:52:24;;;;;;;;;9.67;9.00;;;;;;;;5083194;28;45287;-80
2024/02/04 00:54:49;;;;;;;;;7.67;7.67;;;;;;;;5081760;28;45999;-80
2024/02/04 00:57:14;;;;;;;;;9.00;9.00;;;;;;;;5076219;27;46444;-80
2024/02/04 00:59:39;;;;;;;;;7.00;7.00;;;;;;;;5061362;28;45334;-80
2024/02/04 01:02:05;;;;;;;;;8.00;7.67;;;;;;;;5063040;28;45289;-80
2024/02/04 01:04:30;;;;;;;;;14.00;14.00;;;;;;;;5061311;28;45869;-80
2024/02/04 01:06:55;;;;;;;;;12.00;10.00;;;;;;;;5061250;28;47090;-80
2024/02/04 01:09:20;;;;;;;;;9.67;8.67;;;;;;;;5062592;28;45382;-81
2024/02/04 01:11:45;;;;;;;;;6.00;6.00;;;;;;;;5061697;28;45322;-79
2024/02/04 01:14:10;;;;;;;;;8.33;6.00;;;;;;;;5062598;28;45316;-80
2024/02/04 01:16:36;;;;;;;;;5.00;5.00;;;;;;;;5061415;28;46038;-80
2024/02/04 01:19:01;;;;;;;;;9.00;7.67;;;;;;;;5062652;28;45492;-80
2024/02/04 01:21:27;;;;;;;;;7.67;6.33;;;;;;;;5061428;28;45259;-81
2024/02/04 01:23:52;;;;;;;;;7.67;6.33;;;;;;;;5060985;28;46073;-80
2024/02/04 01:26:17;;;;;;;;;7.33;7.00;;;;;;;;5062190;28;45405;-80
2024/02/04 01:28:42;;;;;;;;;5.67;5.67;;;;;;;;5062445;28;45228;-80
2024/02/04 01:31:07;;;;;;;;;9.33;8.67;;;;;;;;5062773;28;45564;-80
2024/02/04 01:33:33;;;;;;;;;5.00;5.00;;;;;;;;5062324;28;45434;-81
2024/02/04 01:35:58;;;;;;;;;5.67;5.67;;;;;;;;5062318;28;45239;-80
2024/02/04 01:38:23;;;;;;;;;5.33;5.00;;;;;;;;5060906;28;45324;-79
2024/02/04 01:40:51;;;;;;;;;5.00;5.00;;;;;;;;5062379;28;45257;-80
2024/02/04 01:43:16;;;;;;;;;5.00;5.00;;;;;;;;5062344;28;45215;-80
2024/02/04 01:45:41;;;;;;;;;6.00;6.00;;;;;;;;5062051;28;45265;-81
2024/02/04 01:48:06;;;;;;;;;4.33;4.33;;;;;;;;5062011;28;45314;-80
2024/02/04 01:50:32;;;;;;;;;5.33;4.00;;;;;;;;5061804;28;45731;-80
2024/02/04 01:52:57;;;;;;;;;5.00;5.00;;;;;;;;5060563;28;46407;-80
2024/02/04 01:55:22;;;;;;;;;5.67;5.67;;;;;;;;5060366;28;48023;-80
2024/02/04 01:57:49;;;;;;;;;4.00;4.00;;;;;;;;5073558;28;45329;-80
2024/02/04 02:00:14;;;;;;;;;4.67;4.67;;;;;;;;5082522;27;45315;-80
2024/02/04 02:02:40;;;;;;;;;7.00;5.67;;;;;;;;5080577;28;45385;-80
2024/02/04 02:05:05;;;;;;;;;6.00;4.00;;;;;;;;5082035;27;46064;-80
2024/02/04 02:07:30;;;;;;;;;4.33;4.33;;;;;;;;5082302;27;45297;-80
2024/02/04 02:09:56;;;;;;;;;6.00;5.00;;;;;;;;5082097;27;45547;-81
2024/02/04 02:12:25;;;;;;;;;4.33;4.33;;;;;;;;5080624;28;46309;-80
2024/02/04 02:15:03;;;;;;;;;5.33;4.33;;;;;;;;5080579;28;47250;-81
2024/02/04 02:17:32;;;;;;;;;3.00;3.00;;;;;;;;5080588;28;45697;-80
2024/02/04 02:20:04;;;;;;;;;4.00;4.00;;;;;;;;5080649;28;45287;-80
2024/02/04 02:22:43;;;;;;;;;5.00;5.00;;;;;;;;5080442;28;47170;-80
2024/02/04 02:25:09;;;;;;;;;8.00;7.00;;;;;;;;5081312;27;45346;-81
2024/02/04 02:27:45;;;;;;;;;7.00;6.67;;;;;;;;5079951;28;45525;-80
2024/02/04 02:30:10;;;;;;;;;7.67;5.33;;;;;;;;5081941;27;45324;-81
2024/02/04 02:32:36;;;;;;;;;6.33;6.33;;;;;;;;5081720;28;45279;-80
2024/02/04 02:35:01;;;;;;;;;6.00;6.00;;;;;;;;5080128;28;46698;-80
2024/02/04 02:37:45;;;;;;;;;8.00;7.33;;;;;;;;5080478;28;45314;-80
2024/02/04 02:40:10;;;;;;;;;6.67;6.67;;;;;;;;5081652;28;45434;-80
2024/02/04 02:42:38;;;;;;;;;7.67;7.67;;;;;;;;5081668;27;45430;-79
2024/02/04 02:45:04;;;;;;;;;5.67;5.67;;;;;;;;5081507;27;45374;-80
2024/02/04 02:47:29;;;;;;;;;6.67;6.00;;;;;;;;5081491;28;45247;-80
2024/02/04 02:49:54;;;;;;;;;4.00;4.00;;;;;;;;5081538;27;45279;-80
2024/02/04 02:52:20;;;;;;;;;3.67;3.67;;;;;;;;5081280;27;45478;-80
2024/02/04 02:54:45;;;;;;;;;4.67;4.00;;;;;;;;5079863;28;47266;-80
2024/02/04 02:57:11;;;;;;;;;5.00;5.00;;;;;;;;5075046;27;45285;-80
2024/02/04 02:59:36;;;;;;;;;4.67;3.67;;;;;;;;5061095;28;45318;-80
2024/02/04 03:02:01;;;;;;;;;4.33;4.33;;;;;;;;5061097;28;45407;-80
2024/02/04 03:04:26;;;;;;;;;5.00;4.00;;;;;;;;5059473;28;47104;-80
2024/02/04 03:06:51;;;;;;;;;0.00;0.00;;;;;;;;5061025;28;45354;-80
2024/02/04 03:09:16;;;;;;;;;3.33;3.00;;;;;;;;5060975;28;45393;-80
2024/02/04 03:11:42;;;;;;;;;2.67;2.67;;;;;;;;5060951;28;45447;-80
2024/02/04 03:14:07;;;;;;;;;4.67;3.67;;;;;;;;5060126;28;46232;-80
2024/02/04 03:16:32;;;;;;;;;3.33;3.33;;;;;;;;5059431;28;45283;-80
2024/02/04 03:18:58;;;;;;;;;2.67;1.67;;;;;;;;5053305;28;45556;-79
2024/02/04 03:21:23;;;;;;;;;3.33;3.33;;;;;;;;5039132;28;45965;-80
2024/02/04 03:23:48;;;;;;;;;3.00;3.00;;;;;;;;5039025;28;48293;-80
2024/02/04 03:26:17;;;;;;;;;2.00;2.00;;;;;;;;5048465;28;45315;-79
2024/02/04 03:28:42;;;;;;;;;2.67;2.00;;;;;;;;5060003;28;45262;-81
2024/02/04 03:31:07;;;;;;;;;4.33;3.00;;;;;;;;5060009;28;45225;-80
2024/02/04 03:33:32;;;;;;;;;2.33;2.33;;;;;;;;5059424;28;45460;-79
2024/02/04 03:35:57;;;;;;;;;2.00;2.00;;;;;;;;5059224;28;45350;-79
2024/02/04 03:38:23;;;;;;;;;2.67;2.67;;;;;;;;5059308;28;45351;-80
2024/02/04 03:40:49;;;;;;;;;2.33;2.33;;;;;;;;5060193;28;45452;-79
2024/02/04 03:43:14;;;;;;;;;2.67;2.67;;;;;;;;5060511;28;46181;-79
2024/02/04 03:45:39;;;;;;;;;3.67;3.67;;;;;;;;5060308;28;45382;-80
2024/02/04 03:48:05;;;;;;;;;2.67;1.33;;;;;;;;5060456;28;45240;-80
2024/02/04 03:50:30;;;;;;;;;2.00;2.00;;;;;;;;5060080;28;45361;-81
2024/02/04 03:52:55;;;;;;;;;2.33;2.33;;;;;;;;5060176;28;46036;-79
2024/02/04 03:55:20;;;;;;;;;3.00;3.00;;;;;;;;5058586;28;45289;-79
2024/02/04 03:57:45;;;;;;;;;2.67;2.67;;;;;;;;5071549;28;45411;-79
2024/02/04 04:00:11;;;;;;;;;5.33;3.33;;;;;;;;5080490;27;45315;-80
2024/02/04 04:02:36;;;;;;;;;3.00;3.00;;;;;;;;5080476;27;45338;-79
2024/02/04 04:05:02;;;;;;;;;3.00;3.00;;;;;;;;5080338;27;45330;-80
2024/02/04 04:07:27;;;;;;;;;3.67;3.67;;;;;;;;5080262;27;45314;-80
2024/02/04 04:09:52;;;;;;;;;3.00;3.00;;;;;;;;5078619;28;45990;-80
2024/02/04 04:12:17;;;;;;;;;4.00;4.00;;;;;;;;5080325;27;46353;-80
2024/02/04 04:14:43;;;;;;;;;3.67;3.67;;;;;;;;5080469;28;45246;-80
2024/02/04 04:17:08;;;;;;;;;3.67;3.67;;;;;;;;5079073;28;45134;-80
2024/02/04 04:19:35;;;;;;;;;5.33;4.00;;;;;;;;5080066;28;45271;-80
2024/02/04 04:22:01;;;;;;;;;5.00;5.00;;;;;;;;5080082;27;45250;-80
2024/02/04 04:24:26;;;;;;;;;3.00;3.00;;;;;;;;5079172;27;45283;-80
2024/02/04 04:26:51;;;;;;;;;3.00;3.00;;;;;;;;5079376;27;45168;-80
2024/02/04 04:29:16;;;;;;;;;5.00;5.00;;;;;;;;5078436;28;46262;-81
2024/02/04 04:31:42;;;;;;;;;5.00;4.00;;;;;;;;5078630;28;47127;-80
2024/02/04 04:34:07;;;;;;;;;4.67;4.33;;;;;;;;5078536;28;45311;-80
2024/02/04 04:36:32;;;;;;;;;2.00;2.00;;;;;;;;5080118;27;45510;-80
2024/02/04 04:38:57;;;;;;;;;4.00;4.00;;;;;;;;5080044;27;45561;-80
2024/02/04 04:41:22;;;;;;;;;4.00;4.00;;;;;;;;5078153;28;47172;-80
2024/02/04 04:43:47;;;;;;;;;4.00;4.00;;;;;;;;5080029;27;45308;-79
2024/02/04 04:46:13;;;;;;;;;6.00;5.00;;;;;;;;5080014;28;45335;-80
2024/02/04 04:48:38;;;;;;;;;4.67;4.67;;;;;;;;5078413;28;46078;-80
2024/02/04 04:51:03;;;;;;;;;4.00;4.00;;;;;;;;5078152;28;47058;-79
2024/02/04 04:53:28;;;;;;;;;5.67;5.67;;;;;;;;5079747;27;45290;-80
2024/02/04 04:55:53;;;;;;;;;6.00;4.33;;;;;;;;5079735;27;45302;-80
2024/02/04 04:58:19;;;;;;;;;5.00;5.00;;;;;;;;5063526;27;45378;-80
2024/02/04 05:00:44;;;;;;;;;5.00;3.33;;;;;;;;5059419;28;46113;-81
2024/02/04 05:03:09;;;;;;;;;8.67;8.67;;;;;;;;5059416;28;45391;-80
2024/02/04 05:05:34;;;;;;;;;7.33;7.33;;;;;;;;5057987;28;45417;-81
2024/02/04 05:07:59;;;;;;;;;6.33;6.33;;;;;;;;5057773;28;47366;-80
2024/02/04 05:10:24;;;;;;;;;5.00;5.00;;;;;;;;5059031;28;46533;-80
2024/02/04 05:12:49;;;;;;;;;4.33;4.33;;;;;;;;5057333;28;45366;-80
2024/02/04 05:15:15;;;;;;;;;5.00;5.00;;;;;;;;5058949;28;45523;-80
2024/02/04 05:17:40;;;;;;;;;4.00;4.00;;;;;;;;5058112;28;45630;-80
2024/02/04 05:20:07;;;;;;;;;5.67;4.67;;;;;;;;5059625;28;45208;-80
2024/02/04 05:22:32;;;;;;;;;6.67;6.67;;;;;;;;5059247;28;45334;-80
2024/02/04 05:24:58;;;;;;;;;6.00;5.67;;;;;;;;5058961;28;45464;-80
2024/02/04 05:27:23;;;;;;;;;3.00;3.00;;;;;;;;5058813;28;45894;-80
2024/02/04 05:29:48;;;;;;;;;9.00;7.00;;;;;;;;5057613;28;47888;-80
2024/02/04 05:32:14;;;;;;;;;8.00;7.00;;;;;;;;5058971;28;45850;-80
2024/02/04 05:34:39;;;;;;;;;4.00;4.00;;;;;;;;5059087;28;45334;-80
2024/02/04 05:37:04;;;;;;;;;8.00;7.00;;;;;;;;5060840;28;45149;-80
2024/02/04 05:39:29;;;;;;;;;7.00;6.00;;;;;;;;5061251;28;47126;-81
2024/02/04 05:41:55;;;;;;;;;6.00;6.00;;;;;;;;5061062;28;45262;-80
2024/02/04 05:44:20;;;;;;;;;6.67;6.00;;;;;;;;5062531;28;45535;-80
2024/02/04 05:46:45;;;;;;;;;6.00;5.67;;;;;;;;5062329;28;45238;-80
2024/02/04 05:49:11;;;;;;;;;6.67;5.33;;;;;;;;5061130;28;47870;-80
2024/02/04 05:51:40;;;;;;;;;5.00;5.00;;;;;;;;5060962;28;45222;-81
2024/02/04 05:54:05;;;;;;;;;5.00;5.00;;;;;;;;5062167;28;45263;-80
2024/02/04 05:56:31;;;;;;;;;4.67;4.00;;;;;;;;5062772;28;45273;-80
2024/02/04 05:58:56;;;;;;;;;3.00;3.00;;;;;;;;5076176;27;46423;-81
2024/02/04 06:01:21;;;;;;;;;4.00;4.00;;;;;;;;5062072;28;45621;-81
2024/02/04 06:03:46;;;;;;;;;6.00;6.00;;;;;;;;5061643;28;45402;-81
2024/02/04 06:06:20;;;;;;;;;6.33;4.67;;;;;;;;5060722;28;45336;-81
2024/02/04 06:08:45;;;;;;;;;4.67;4.00;;;;;;;;5061781;28;45412;-80
2024/02/04 06:11:11;;;;;;;;;3.33;3.33;;;;;;;;5060454;28;45613;-81
2024/02/04 06:13:36;;;;;;;;;4.67;4.67;;;;;;;;5060742;28;45307;-81
2024/02/04 06:16:01;;;;;;;;;3.67;3.67;;;;;;;;5060382;28;46120;-80
2024/02/04 06:18:27;;;;;;;;;4.00;4.00;;;;;;;;5060390;28;47086;-80
2024/02/04 06:20:52;;;;;;;;;6.00;6.00;;;;;;;;5061870;28;45493;-81
2024/02/04 06:23:19;;;;;;;;;7.67;6.00;;;;;;;;5061911;28;45404;-80
2024/02/04 06:25:44;;;;;;;;;4.00;4.00;;;;;;;;5060655;28;45450;-81
2024/02/04 06:28:10;;;;;;;;;5.67;4.67;;;;;;;;5061343;28;46684;-80
2024/02/04 06:30:35;;;;;;;;;5.67;5.00;;;;;;;;5060369;28;45361;-81
2024/02/04 06:33:00;;;;;;;;;5.00;5.00;;;;;;;;5060312;28;45558;-80
2024/02/04 06:35:26;;;;;;;;;5.33;4.67;;;;;;;;5060140;28;45790;-81
2024/02/04 06:37:51;;;;;;;;;4.00;4.00;;;;;;;;5061549;28;45248;-81
2024/02/04 06:40:16;;;;;;;;;7.00;6.00;;;;;;;;5060061;28;45988;-80
2024/02/04 06:42:41;;;;;;;;;6.00;6.00;;;;;;;;5061779;28;45294;-81
2024/02/04 06:45:07;;;;;;;;;6.00;6.00;;;;;;;;5061489;28;45286;-80
2024/02/04 06:47:32;;;;;;;;;5.67;5.00;;;;;;;;5060706;28;45825;-81
2024/02/04 06:49:57;;;;;;;;;6.00;5.67;;;;;;;;5060976;28;45510;-80
2024/02/04 06:52:22;;;;;;;;;6.00;5.00;;;;;;;;5061044;28;45440;-81
2024/02/04 06:54:47;;;;;;;;;7.00;7.00;;;;;;;;5059648;28;47116;-80
2024/02/04 06:57:12;;;;;;;;;7.33;7.33;;;;;;;;5067907;28;45314;-79
2024/02/04 06:59:38;;;;;;;;;7.33;5.67;;;;;;;;5080290;28;45464;-81
2024/02/04 07:02:03;;;;;;;;;7.33;6.67;;;;;;;;5081889;28;45335;-81
2024/02/04 07:04:28;;;;;;;;;6.00;5.67;;;;;;;;5081470;27;45367;-80
2024/02/04 07:06:53;;;;;;;;;8.00;8.00;;;;;;;;5081934;27;46450;-80
2024/02/04 07:09:19;;;;;;;;;6.33;6.33;;;;;;;;5081314;27;45350;-80
2024/02/04 07:11:44;;;;;;;;;6.00;6.00;;;;;;;;5080656;28;45286;-80
2024/02/04 07:14:09;;;;;;;;;6.00;5.67;;;;;;;;5081228;27;45317;-80
2024/02/04 07:16:34;;;;;;;;;6.67;6.67;;;;;;;;5079748;28;48120;-80
2024/02/04 07:19:00;;;;;;;;;8.00;8.00;;;;;;;;5082322;27;45349;-79
2024/02/04 07:21:25;;;;;;;;;8.33;8.33;;;;;;;;5081878;28;45213;-80
2024/02/04 07:23:50;;;;;;;;;9.00;6.00;;;;;;;;5081035;27;45511;-81
2024/02/04 07:26:15;;;;;;;;;8.67;8.33;;;;;;;;5081411;27;46124;-80
2024/02/04 07:28:40;;;;;;;;;6.33;5.33;;;;;;;;5078255;27;45351;-83
2024/02/04 07:31:06;;;;;;;;;6.33;6.33;;;;;;;;5063559;28;45438;-80
2024/02/04 07:33:31;;;;;;;;;6.00;5.67;;;;;;;;5065870;28;45390;-83
2024/02/04 07:35:56;;;;;;;;;5.00;4.33;;;;;;;;5063077;28;46491;-80
2024/02/04 07:38:21;;;;;;;;;6.00;6.00;;;;;;;;5060150;28;46039;-80
2024/02/04 07:40:46;;;;;;;;;4.33;4.33;;;;;;;;5061964;28;45345;-79
2024/02/04 07:43:12;;;;;;;;;5.00;5.00;;;;;;;;5059296;28;45425;-79
2024/02/04 07:45:37;;;;;;;;;6.33;6.33;;;;;;;;5061512;28;45472;-78
2024/02/04 07:48:03;;;;;;;;;5.67;4.67;;;;;;;;5058746;28;45735;-78
2024/02/04 07:50:28;;;;;;;;;7.33;6.33;;;;;;;;5059279;28;45978;-78
2024/02/04 07:52:53;;;;;;;;;8.67;6.33;;;;;;;;5060930;28;45364;-81
2024/02/04 07:55:18;;;;;;;;;6.00;5.00;;;;;;;;5062313;28;45290;-81
2024/02/04 07:57:43;;;;;;;;;5.00;5.00;;;;;;;;5068970;28;45454;-80
2024/02/04 08:00:10;;;;;;;;;7.33;5.67;;;;;;;;5059391;28;45319;-82
2024/02/04 08:02:35;;;;;;;;;8.33;7.00;;;;;;;;5059596;28;46039;-82
2024/02/04 08:05:01;;;;;;;;;7.00;5.67;;;;;;;;5059510;28;45944;-79
2024/02/04 08:07:26;;;;;;;;;6.00;6.00;;;;;;;;5061059;28;45191;-79
2024/02/04 08:09:52;;;;;;;;;8.00;8.00;;;;;;;;5059171;28;45215;-79
2024/02/04 08:12:17;;;;;;;;;9.00;9.00;;;;;;;;5059555;28;47126;-79
2024/02/04 08:14:42;;;;;;;;;9.00;7.33;;;;;;;;5059964;28;45421;-79
2024/02/04 08:17:07;;;;;;;;;7.33;6.00;;;;;;;;5059754;28;45463;-79
2024/02/04 08:19:33;;;;;;;;;6.00;6.00;;;;;;;;5059587;28;45632;-78
2024/02/04 08:21:58;;;;;;;;;7.00;5.00;;;;;;;;5058597;28;45642;-78
2024/02/04 08:24:24;;;;;;;;;6.00;6.00;;;;;;;;5057019;28;47359;-77
2024/02/04 08:26:49;;;;;;;;;6.67;6.67;;;;;;;;5058944;28;45388;-80
2024/02/04 08:29:14;;;;;;;;;8.00;8.00;;;;;;;;5059175;28;45425;-82
2024/02/04 08:31:39;;;;;;;;;5.67;5.67;;;;;;;;5058631;28;45477;-78
2024/02/04 08:34:05;;;;;;;;;6.67;6.33;;;;;;;;5058970;28;45491;-79
2024/02/04 08:36:30;;;;;;;;;7.00;7.00;;;;;;;;5059095;28;45423;-78
2024/02/04 08:38:56;;;;;;;;;9.33;9.00;;;;;;;;5058597;28;45451;-78
2024/02/04 08:41:21;;;;;;;;;9.67;8.67;;;;;;;;5058766;28;45457;-78
2024/02/04 08:43:46;;;;;;;;;8.00;6.67;;;;;;;;5058759;28;46191;-79
2024/02/04 08:46:11;;;;;;;;;10.67;9.33;;;;;;;;5059510;28;45516;-77
2024/02/04 08:48:37;;;;;;;;;11.67;9.00;;;;;;;;5057404;28;45559;-81
2024/02/04 08:51:02;;;;;;;;;9.00;9.00;;;;;;;;5058472;28;45408;-77
2024/02/04 08:53:27;;;;;;;;;13.00;11.33;;;;;;;;5059279;28;46184;-79
2024/02/04 08:55:53;;;;;;;;;10.00;9.67;;;;;;;;5058905;28;45468;-78
2024/02/04 08:58:18;;;;;;;;;8.33;7.33;;;;;;;;5075182;28;45286;-78
2024/02/04 09:00:43;;;;;;;;;6.33;6.00;;;;;;;;5068593;27;45239;-78
2024/02/04 09:03:08;;;;;;;;;8.33;6.67;;;;;;;;5059386;28;45359;-77
2024/02/04 09:05:34;;;;;;;;;12.33;11.00;;;;;;;;5057328;28;45794;-77
2024/02/04 09:07:59;;;;;;;;;9.00;9.00;;;;;;;;5057715;28;45370;-76
2024/02/04 09:10:24;;;;;;;;;8.67;8.67;;;;;;;;5057654;28;46181;-76
2024/02/04 09:12:49;;;;;;;;;9.00;9.00;;;;;;;;5061927;28;46461;-77
2024/02/04 09:15:15;;;;;;;;;16.00;14.67;;;;;;;;5062426;28;45251;-76
2024/02/04 09:17:40;;;;;;;;;15.00;15.00;;;;;;;;5062022;28;45374;-78
2024/02/04 09:20:05;;;;;;;;;15.00;14.00;;;;;;;;5062539;28;45346;-79
2024/02/04 09:22:31;;;;;;;;;12.00;12.00;;;;;;;;5062537;28;45395;-78
2024/02/04 09:24:56;;;;;;;;;12.33;10.33;;;;;;;;5062102;28;45204;-77
2024/02/04 09:27:21;;;;;;;;;10.33;10.33;;;;;;;;5061824;28;45280;-78
2024/02/04 09:29:47;;;;;;;;;10.67;10.67;;;;;;;;5062237;28;45403;-78
2024/02/04 09:32:12;;;;;;;;;6.33;6.33;;;;;;;;5062387;28;45153;-79
2024/02/04 09:34:37;;;;;;;;;15.00;14.33;;;;;;;;5060582;28;46303;-80
2024/02/04 09:37:02;;;;;;;;;12.33;12.33;;;;;;;;5061341;28;45422;-79
2024/02/04 09:39:29;;;;;;;;;14.00;13.67;;;;;;;;5061300;28;45391;-79
2024/02/04 09:41:54;;;;;;;;;11.67;11.67;;;;;;;;5059968;28;47866;-78
2024/02/04 09:44:21;;;;;;;;;10.33;9.00;;;;;;;;5060626;28;45258;-77
2024/02/04 09:46:46;;;;;;;;;15.33;14.33;;;;;;;;5061189;28;45481;-77
2024/02/04 09:49:12;;;;;;;;;18.33;18.00;;;;;;;;5059877;28;47269;-81
2024/02/04 09:51:39;;;;;;;;;20.00;18.00;;;;;;;;5060749;28;46483;-80
2024/02/04 09:54:06;;;;;;;;;7.00;7.00;;;;;;;;5059401;28;46132;-80
2024/02/04 09:56:33;;;;;;;;;8.67;8.67;;;;;;;;5061405;28;45199;-79
2024/02/04 09:58:58;;;;;;;;;9.00;9.00;;;;;;;;5059685;28;47504;-79
2024/02/04 10:01:23;;;;;;;;;9.00;9.00;;;;;;;;5060924;28;45785;-79
2024/02/04 10:03:48;;;;;;;;;9.00;9.00;;;;;;;;5060721;28;45441;-79
2024/02/04 10:06:14;;;;;;;;;11.00;11.00;;;;;;;;5061023;28;45425;-79
2024/02/04 10:08:39;;;;;;;;;9.67;9.67;;;;;;;;5061254;28;45555;-79
2024/02/04 10:11:04;;;;;;;;;7.00;7.00;;;;;;;;5060059;28;47395;-80
2024/02/04 10:13:30;;;;;;;;;11.00;10.67;;;;;;;;5060710;28;45375;-79
2024/02/04 10:15:55;;;;;;;;;16.67;15.00;;;;;;;;5058913;28;45496;-81
2024/02/04 10:18:21;;;;;;;;;7.00;7.00;;;;;;;;5060487;28;45407;-80
2024/02/04 10:20:46;;;;;;;;;9.00;8.67;;;;;;;;5061377;28;46298;-80
2024/02/04 10:23:11;;;;;;;;;11.00;11.00;;;;;;;;5061288;28;45716;-81
2024/02/04 10:25:37;;;;;;;;;13.67;13.67;;;;;;;;5061301;28;45721;-80
2024/02/04 10:28:02;;;;;;;;;7.33;7.33;;;;;;;;5059091;28;45984;-82
2024/02/04 10:30:27;;;;;;;;;5.00;5.00;;;;;;;;5060935;28;45236;-81
2024/02/04 10:32:53;;;;;;;;;7.33;7.33;;;;;;;;5061475;28;45385;-82
2024/02/04 10:35:22;;;;;;;;;7.00;6.33;;;;;;;;5060585;28;45645;-82
2024/02/04 10:37:48;;;;;;;;;6.33;6.33;;;;;;;;5059018;28;46917;-80
2024/02/04 10:40:24;;;;;;;;;7.00;7.00;;;;;;;;5059833;28;45760;-81
2024/02/04 10:42:50;;;;;;;;;9.33;9.33;;;;;;;;5056177;28;45410;-81
2024/02/04 10:45:21;;;;;;;;;10.33;9.67;;;;;;;;5060492;28;45480;-80
2024/02/04 10:47:52;;;;;;;;;6.67;6.67;;;;;;;;5060116;28;45438;-82
2024/02/04 10:50:18;;;;;;;;;7.33;7.33;;;;;;;;5060214;28;45474;-80
2024/02/04 10:52:46;;;;;;;;;5.67;5.67;;;;;;;;5060066;28;45430;-82
2024/02/04 10:55:11;;;;;;;;;8.00;8.00;;;;;;;;5059785;28;45413;-82
2024/02/04 10:57:37;;;;;;;;;7.67;7.00;;;;;;;;5070643;28;45285;-77
2024/02/04 11:00:08;;;;;;;;;8.33;8.00;;;;;;;;5064083;27;45997;-78
2024/02/04 11:02:33;;;;;;;;;8.00;8.00;;;;;;;;5060788;28;45306;-79
2024/02/04 11:04:59;;;;;;;;;9.33;9.33;;;;;;;;5059212;28;45355;-78
2024/02/04 11:07:25;;;;;;;;;5.67;5.00;;;;;;;;5060497;28;45264;-80
2024/02/04 11:09:50;;;;;;;;;5.00;5.00;;;;;;;;5060350;28;45598;-79
2024/02/04 11:12:17;;;;;;;;;5.33;5.33;;;;;;;;5059599;28;45328;-81
2024/02/04 11:14:45;;;;;;;;;6.33;6.33;;;;;;;;5059511;28;45286;-80
2024/02/04 11:17:29;;;;;;;;;2.00;2.00;;;;;;;;5059239;28;47460;-79
2024/02/04 11:20:13;;;;;;;;;2.00;2.00;;;;;;;;5060457;28;46341;-80
2024/02/04 11:22:47;;;;;;;;;7.67;7.67;;;;;;;;5059123;28;45252;-79
2024/02/04 11:25:31;;;;;;;;;7.67;6.33;;;;;;;;5060042;28;45473;-79
2024/02/04 11:27:56;;;;;;;;;8.00;8.00;;;;;;;;5060178;28;45354;-79
2024/02/04 11:30:22;;;;;;;;;8.00;6.00;;;;;;;;5058974;28;48406;-80
2024/02/04 11:32:48;;;;;;;;;12.00;10.67;;;;;;;;5060405;28;45343;-79
2024/02/04 11:35:13;;;;;;;;;6.67;6.67;;;;;;;;5058272;28;45267;-80
2024/02/04 11:37:42;;;;;;;;;9.00;8.00;;;;;;;;5060288;28;45319;-81
2024/02/04 11:40:07;;;;;;;;;6.00;6.00;;;;;;;;5059198;28;46089;-81
2024/02/04 11:42:32;;;;;;;;;9.67;9.67;;;;;;;;5059741;28;45351;-80
2024/02/04 11:45:13;;;;;;;;;5.00;5.00;;;;;;;;5059034;28;45297;-81
2024/02/04 11:47:39;;;;;;;;;10.00;10.00;;;;;;;;5059590;28;45405;-82
2024/02/04 11:50:04;;;;;;;;;8.67;8.67;;;;;;;;5059394;28;46084;-81
2024/02/04 11:52:30;;;;;;;;;11.67;9.67;;;;;;;;5058127;28;45799;-81
2024/02/04 11:54:55;;;;;;;;;7.67;7.00;;;;;;;;5059733;28;45228;-79
2024/02/04 11:57:20;;;;;;;;;6.00;6.00;;;;;;;;5066495;28;45445;-81
2024/02/04 11:59:46;;;;;;;;;4.67;4.67;;;;;;;;5063074;28;46967;-81
2024/02/04 12:02:12;;;;;;;;;4.00;4.00;;;;;;;;5047046;28;46155;-82
2024/02/04 12:04:38;;;;;;;;;5.33;4.67;;;;;;;;5057472;28;45254;-83
2024/02/04 12:07:03;;;;;;;;;3.67;3.67;;;;;;;;5058349;28;45345;-81
2024/02/04 12:09:28;;;;;;;;;1.00;1.00;;;;;;;;5057317;28;47143;-84
2024/02/04 12:11:54;;;;;;;;;3.33;3.33;;;;;;;;5057229;28;45362;-84
2024/02/04 12:14:19;;;;;;;;;2.00;2.00;;;;;;;;5057862;28;45362;-79
2024/02/04 12:16:45;;;;;;;;;4.67;4.67;;;;;;;;5058238;28;45300;-78
2024/02/04 12:19:10;;;;;;;;;1.33;1.33;;;;;;;;5057043;28;46968;-79
2024/02/04 12:21:36;;;;;;;;;3.00;2.00;;;;;;;;5057274;28;45361;-79
2024/02/04 12:24:02;;;;;;;;;4.33;4.33;;;;;;;;5056120;28;45370;-81
2024/02/04 12:26:28;;;;;;;;;3.00;3.00;;;;;;;;5058406;28;45420;-78
2024/02/04 12:28:53;;;;;;;;;6.00;4.00;;;;;;;;5057916;28;46177;-82
2024/02/04 12:31:19;;;;;;;;;5.33;5.00;;;;;;;;5057938;28;45413;-80
2024/02/04 12:33:58;;;;;;;;;4.33;4.33;;;;;;;;5058695;28;45330;-81
2024/02/04 12:36:27;;;;;;;;;3.33;3.33;;;;;;;;5056699;28;45387;-79
2024/02/04 12:38:55;;;;;;;;;3.00;3.00;;;;;;;;5057042;28;48428;-81
2024/02/04 12:41:24;;;;;;;;;4.00;2.00;;;;;;;;5056775;28;45589;-80
2024/02/04 12:43:51;;;;;;;;;2.00;2.00;;;;;;;;5057766;28;45371;-80
2024/02/04 12:46:16;;;;;;;;;3.00;3.00;;;;;;;;5058362;28;46188;-80
2024/02/04 12:48:41;;;;;;;;;5.00;5.00;;;;;;;;5066945;28;45939;-81
2024/02/04 12:51:06;;;;;;;;;5.00;5.00;;;;;;;;5067046;28;45509;-80
2024/02/04 12:53:32;;;;;;;;;4.67;4.67;;;;;;;;5067379;28;45230;-81
2024/02/04 12:56:00;;;;;;;;;3.00;2.00;;;;;;;;5064731;28;45259;-83
2024/02/04 12:58:26;;;;;;;;;5.33;5.00;;;;;;;;5078272;28;47480;-82
2024/02/04 13:00:59;;;;;;;;;3.00;3.00;;;;;;;;5081102;28;45674;-80
2024/02/04 13:03:24;;;;;;;;;7.00;7.00;;;;;;;;5081882;27;45544;-81
2024/02/04 13:05:49;;;;;;;;;6.00;6.00;;;;;;;;5082325;27;45534;-79
2024/02/04 13:08:18;;;;;;;;;4.00;4.00;;;;;;;;5061317;28;47248;-82
2024/02/04 13:10:45;;;;;;;;;2.00;2.00;;;;;;;;5063893;28;45576;-82
2024/02/04 13:13:12;;;;;;;;;6.00;5.33;;;;;;;;5064009;28;45284;-82
2024/02/04 13:15:43;;;;;;;;;1.67;1.67;;;;;;;;5061863;28;45208;-80
2024/02/04 13:18:08;;;;;;;;;3.33;2.67;;;;;;;;5060684;28;48247;-80
2024/02/04 13:20:33;;;;;;;;;2.00;2.00;;;;;;;;5060944;28;45923;-83
2024/02/04 13:23:00;;;;;;;;;3.67;3.00;;;;;;;;5060836;28;45326;-79
2024/02/04 13:25:25;;;;;;;;;4.00;4.00;;;;;;;;5061746;28;45294;-78
2024/02/04 13:27:50;;;;;;;;;5.33;5.33;;;;;;;;5061500;28;45277;-80
2024/02/04 13:30:16;;;;;;;;;7.00;4.00;;;;;;;;5060148;28;46146;-81
2024/02/04 13:32:42;;;;;;;;;2.33;2.33;;;;;;;;5061641;28;45340;-80
2024/02/04 13:35:11;;;;;;;;;4.00;3.33;;;;;;;;5061861;28;45354;-79
2024/02/04 13:37:37;;;;;;;;;1.00;1.00;;;;;;;;5061592;28;45385;-80
2024/02/04 13:40:03;;;;;;;;;5.33;5.00;;;;;;;;5061363;28;45334;-78
2024/02/04 13:42:28;;;;;;;;;3.00;3.00;;;;;;;;5061251;28;45372;-80
2024/02/04 13:44:54;;;;;;;;;2.67;2.00;;;;;;;;5059248;28;46268;-80
2024/02/04 13:47:19;;;;;;;;;4.67;3.00;;;;;;;;5059190;28;47060;-82
2024/02/04 13:49:44;;;;;;;;;5.00;5.00;;;;;;;;5059193;28;45865;-79
2024/02/04 13:52:10;;;;;;;;;5.00;5.00;;;;;;;;5062361;28;45233;-81
2024/02/04 13:54:35;;;;;;;;;10.33;7.00;;;;;;;;5060596;28;47286;-81
2024/02/04 13:57:00;;;;;;;;;4.67;3.00;;;;;;;;5065958;28;45300;-79
2024/02/04 13:59:25;;;;;;;;;2.67;2.67;;;;;;;;5080984;28;45274;-80
2024/02/04 14:01:50;;;;;;;;;3.67;3.00;;;;;;;;5083000;27;45218;-79
2024/02/04 14:04:16;;;;;;;;;0.67;0.67;;;;;;;;5068744;27;45142;-82
2024/02/04 14:06:41;;;;;;;;;3.33;3.00;;;;;;;;5044266;28;46122;-81
2024/02/04 14:09:06;;;;;;;;;8.67;7.67;;;;;;;;5041169;28;45437;-81
2024/02/04 14:11:32;;;;;;;;;1.00;1.00;;;;;;;;5055156;28;45265;-82
2024/02/04 14:13:57;;;;;;;;;1.00;1.00;;;;;;;;5063898;28;45265;-83
2024/02/04 14:16:22;;;;;;;;;4.00;3.00;;;;;;;;5062307;28;46945;-81
2024/02/04 14:18:47;;;;;;;;;2.67;2.00;;;;;;;;5055357;28;45441;-82
2024/02/04 14:21:14;;;;;;;;;1.67;1.67;;;;;;;;5060698;28;45476;-80
2024/02/04 14:23:39;;;;;;;;;3.33;3.33;;;;;;;;5062603;28;45404;-80
2024/02/04 14:26:07;;;;;;;;;5.00;4.00;;;;;;;;5059226;28;46513;-80
2024/02/04 14:28:36;;;;;;;;;3.00;2.00;;;;;;;;5059312;28;45383;-77
2024/02/04 14:31:01;;;;;;;;;7.33;6.00;;;;;;;;5060220;28;45330;-79
2024/02/04 14:33:26;;;;;;;;;9.00;5.00;;;;;;;;5060076;28;45264;-79